createdAt,value
2022-11-07T00:02:37.834Z,81.28
2022-11-07T00:05:04.790Z,81.53
2022-11-07T00:07:31.128Z,81.75
2022-11-07T00:09:57.430Z,81.88
2022-11-07T00:14:50.140Z,81.75
2022-11-07T00:17:18.136Z,81.70
2022-11-07T00:22:10.726Z,82.09
2022-11-07T00:27:03.484Z,81.72
2022-11-07T00:29:29.864Z,81.67
2022-11-07T00:31:56.208Z,81.61
2022-11-07T00:34:22.531Z,81.40
2022-11-07T00:36:48.879Z,81.28
2022-11-07T00:39:15.207Z,81.52
2022-11-07T00:44:07.808Z,81.59
2022-11-07T00:46:34.180Z,81.64
2022-11-07T00:51:28.034Z,82.03
2022-11-07T00:53:54.718Z,81.87
2022-11-07T00:56:23.985Z,81.67
2022-11-07T00:58:55.116Z,81.89
2022-11-07T01:01:24.063Z,81.51
2022-11-07T01:04:09.484Z,81.64
2022-11-07T01:06:38.181Z,81.99
2022-11-07T01:14:00.878Z,81.84
2022-11-07T01:16:28.216Z,81.98
2022-11-07T01:18:54.874Z,82.00
2022-11-07T01:21:21.850Z,81.94
2022-11-07T01:26:16.204Z,82.22
2022-11-07T01:28:42.670Z,82.32
2022-11-07T01:31:12.035Z,82.29
2022-11-07T01:36:08.947Z,82.74
2022-11-07T01:38:36.384Z,82.72
2022-11-07T01:41:21.010Z,82.25
2022-11-07T01:44:01.437Z,82.24
2022-11-07T01:46:42.728Z,82.55
2022-11-07T01:49:17.966Z,82.75
2022-11-07T01:51:58.209Z,82.78
2022-11-07T01:54:30.054Z,82.64
2022-11-07T01:57:00.387Z,82.60
2022-11-07T01:59:31.169Z,82.50
2022-11-07T02:01:58.776Z,82.57
2022-11-07T02:04:29.041Z,82.66
2022-11-07T02:09:24.671Z,82.70
2022-11-07T02:11:51.728Z,83.17
2022-11-07T02:14:19.412Z,83.24
2022-11-07T02:16:46.702Z,83.24
2022-11-07T02:21:57.093Z,82.96
2022-11-07T02:24:27.847Z,82.93
2022-11-07T02:26:56.184Z,83.24
2022-11-07T02:29:23.939Z,83.35
2022-11-07T02:32:01.182Z,83.95
2022-11-07T02:34:27.498Z,83.79
2022-11-07T02:36:53.931Z,83.77
2022-11-07T02:39:20.754Z,84.29
2022-11-07T02:49:07.075Z,84.68
2022-11-07T02:51:33.402Z,84.73
2022-11-07T02:56:26.086Z,84.70
2022-11-07T02:58:52.614Z,84.44
2022-11-07T03:01:19.578Z,84.68
2022-11-07T03:03:48.793Z,84.59
2022-11-07T03:11:11.187Z,83.97
2022-11-07T03:13:38.063Z,84.10
2022-11-07T03:16:09.009Z,84.40
2022-11-07T03:18:36.084Z,84.10
2022-11-07T03:21:03.754Z,83.87
2022-11-07T03:23:30.226Z,84.19
2022-11-07T03:25:56.723Z,84.30
2022-11-07T03:28:24.676Z,84.24
2022-11-07T03:30:51.851Z,84.17
2022-11-07T03:33:18.675Z,84.11
2022-11-07T03:35:45.501Z,84.41
2022-11-07T03:38:11.912Z,83.72
2022-11-07T03:40:38.210Z,84.22
2022-11-07T03:43:04.515Z,84.11
2022-11-07T03:45:30.797Z,83.98
2022-11-07T03:50:23.443Z,84.22
2022-11-07T03:52:49.843Z,84.12
2022-11-07T03:55:17.959Z,84.03
2022-11-07T03:57:45.334Z,84.33
2022-11-07T04:00:13.519Z,84.31
2022-11-07T04:02:40.144Z,84.11
2022-11-07T04:05:07.101Z,84.23
2022-11-07T04:07:33.484Z,84.35
2022-11-07T04:09:59.785Z,84.64
2022-11-07T04:17:56.488Z,83.92
2022-11-07T04:20:22.835Z,84.10
2022-11-07T04:22:49.154Z,84.20
2022-11-07T04:25:15.566Z,84.62
2022-11-07T04:27:44.826Z,84.55
2022-11-07T04:30:22.449Z,84.58
2022-11-07T04:32:53.663Z,84.25
2022-11-07T04:35:21.363Z,84.22
2022-11-07T04:37:48.482Z,84.37
2022-11-07T04:42:43.216Z,84.90
2022-11-07T04:50:10.310Z,84.69
2022-11-07T04:52:36.718Z,84.93
2022-11-07T04:55:03.866Z,84.84
2022-11-07T04:57:30.207Z,84.81
2022-11-07T04:59:56.566Z,84.84
2022-11-07T05:02:25.133Z,84.76
2022-11-07T05:07:19.282Z,84.73
2022-11-07T05:09:45.899Z,84.86
2022-11-07T05:12:12.248Z,84.54
2022-11-07T05:17:04.776Z,84.41
2022-11-07T05:24:42.350Z,85.06
2022-11-07T05:27:17.186Z,84.73
2022-11-07T05:29:43.479Z,84.75
2022-11-07T05:34:36.117Z,84.94
2022-11-07T05:39:28.721Z,84.84
2022-11-07T05:41:55.015Z,84.71
2022-11-07T05:44:21.318Z,84.51
2022-11-07T05:46:47.632Z,84.41
2022-11-07T05:49:13.925Z,84.46
2022-11-07T05:51:41.270Z,84.57
2022-11-07T05:54:08.077Z,84.43
2022-11-07T05:56:34.488Z,84.37
2022-11-07T06:01:27.074Z,84.02
2022-11-07T06:03:53.414Z,83.89
2022-11-07T06:06:19.739Z,83.61
2022-11-07T06:08:46.144Z,83.57
2022-11-07T06:11:12.490Z,83.32
2022-11-07T06:16:05.593Z,83.40
2022-11-07T06:18:32.282Z,83.07
2022-11-07T06:21:01.390Z,83.06
2022-11-07T06:25:53.956Z,83.12
2022-11-07T06:28:20.409Z,82.95
2022-11-07T06:30:46.728Z,82.72
2022-11-07T06:33:16.288Z,82.75
2022-11-07T06:35:43.728Z,82.56
2022-11-07T06:38:11.498Z,82.34
2022-11-07T06:40:39.264Z,82.16
2022-11-07T06:47:59.107Z,81.93
2022-11-07T06:57:44.559Z,81.46
2022-11-07T07:00:11.584Z,81.42
2022-11-07T07:07:50.446Z,81.05
2022-11-07T07:10:16.918Z,81.20
2022-11-07T07:12:44.219Z,81.01
2022-11-07T07:15:10.831Z,80.78
2022-11-07T07:20:05.470Z,80.79
2022-11-07T07:22:31.843Z,80.89
2022-11-07T07:24:58.143Z,81.09
2022-11-07T07:27:24.508Z,80.79
2022-11-07T07:29:53.275Z,81.17
2022-11-07T07:32:20.802Z,80.95
2022-11-07T07:39:39.673Z,80.68
2022-11-07T07:42:05.978Z,80.76
2022-11-07T07:46:58.650Z,80.31
2022-11-07T07:49:24.967Z,80.14
2022-11-07T07:51:51.342Z,80.49
2022-11-07T07:56:43.944Z,80.33
2022-11-07T07:59:10.276Z,80.43
2022-11-07T08:01:36.681Z,80.06
2022-11-07T08:04:03.407Z,79.97
2022-11-07T08:08:56.420Z,79.62
2022-11-07T08:11:22.744Z,80.08
2022-11-07T08:13:49.076Z,79.34
2022-11-07T08:16:15.719Z,79.79
2022-11-07T08:18:42.049Z,79.48
2022-11-07T08:21:08.858Z,79.81
2022-11-07T08:33:25.990Z,79.67
2022-11-07T08:38:22.751Z,79.85
2022-11-07T08:40:50.555Z,79.72
2022-11-07T08:43:18.340Z,79.81
2022-11-07T08:45:46.254Z,80.05
2022-11-07T08:48:12.580Z,80.17
2022-11-07T08:53:05.606Z,80.09
2022-11-07T08:55:32.454Z,80.38
2022-11-07T08:58:04.430Z,80.08
2022-11-07T09:03:31.217Z,80.80
2022-11-07T09:05:47.798Z,80.57
2022-11-07T09:08:14.148Z,80.30
2022-11-07T09:15:32.979Z,80.65
2022-11-07T09:18:04.603Z,81.10
2022-11-07T09:20:32.439Z,81.14
2022-11-07T09:27:52.100Z,81.01
2022-11-07T09:32:46.048Z,81.21
2022-11-07T09:35:14.248Z,81.07
2022-11-07T09:37:41.550Z,81.09
2022-11-07T09:40:26.840Z,80.92
2022-11-07T09:42:53.098Z,80.93
2022-11-07T09:45:19.644Z,80.80
2022-11-07T09:50:33.876Z,79.96
2022-11-07T09:53:10.482Z,79.83
2022-11-07T09:55:38.766Z,80.03
2022-11-07T10:00:36.276Z,80.07
2022-11-07T10:03:03.257Z,79.83
2022-11-07T10:05:45.019Z,79.97
2022-11-07T10:08:31.343Z,80.16
2022-11-07T10:13:52.983Z,81.63
2022-11-07T10:16:33.561Z,83.16
2022-11-07T10:19:44.988Z,84.85
2022-11-07T10:25:05.580Z,86.70
2022-11-07T10:30:00.621Z,87.52
2022-11-07T10:32:37.317Z,87.66
2022-11-07T10:35:12.723Z,87.98
2022-11-07T10:45:14.281Z,88.66
2022-11-07T10:47:41.905Z,88.89
2022-11-07T10:50:22.787Z,88.38
2022-11-07T10:55:19.359Z,87.68
2022-11-07T10:57:49.807Z,87.36
2022-11-07T11:02:56.023Z,86.90
2022-11-07T11:07:55.985Z,86.55
2022-11-07T11:10:24.048Z,86.92
2022-11-07T11:12:50.765Z,86.53
2022-11-07T11:17:44.932Z,86.59
2022-11-07T11:20:31.954Z,86.38
2022-11-07T11:28:01.720Z,86.33
2022-11-07T11:30:30.724Z,85.25
2022-11-07T11:35:42.153Z,84.98
2022-11-07T11:38:14.734Z,85.24
2022-11-07T11:40:47.056Z,84.75
2022-11-07T11:43:21.128Z,84.63
2022-11-07T11:46:05.912Z,85.12
2022-11-07T11:48:48.632Z,84.71
2022-11-07T11:53:44.513Z,83.73
2022-11-07T11:56:24.199Z,83.84
2022-11-07T11:59:18.602Z,83.51
2022-11-07T12:01:58.495Z,82.64
2022-11-07T12:04:52.280Z,82.73
2022-11-07T12:07:46.530Z,81.89
2022-11-07T12:10:25.462Z,80.63
2022-11-07T12:13:03.887Z,79.87
2022-11-07T12:15:58.649Z,80.20
2022-11-07T12:18:35.609Z,78.66
2022-11-07T12:21:21.731Z,79.03
2022-11-07T12:24:05.216Z,78.43
2022-11-07T12:26:36.494Z,78.83
2022-11-07T12:32:27.965Z,78.99
2022-11-07T12:40:53.351Z,79.44
2022-11-07T12:46:21.513Z,77.95
2022-11-07T12:51:35.400Z,77.63
2022-11-07T12:54:26.057Z,77.06
2022-11-07T12:59:25.828Z,77.38
2022-11-07T13:02:12.122Z,77.68
2022-11-07T13:04:55.628Z,77.21
2022-11-07T13:07:39.626Z,77.08
2022-11-07T13:10:15.850Z,76.42
2022-11-07T13:13:00.073Z,76.52
2022-11-07T13:25:16.735Z,76.98
2022-11-07T13:30:35.178Z,76.83
2022-11-07T13:33:02.341Z,76.66
2022-11-07T13:35:39.066Z,77.10
2022-11-07T13:43:28.809Z,77.56
2022-11-07T13:45:57.722Z,78.04
2022-11-07T13:51:02.923Z,76.82
2022-11-07T13:56:14.822Z,76.88
2022-11-07T14:01:12.634Z,76.95
2022-11-07T14:11:02.005Z,76.94
2022-11-07T14:16:01.087Z,76.81
2022-11-07T14:21:29.277Z,76.72
2022-11-07T14:23:56.094Z,76.91
2022-11-07T14:26:28.159Z,76.79
2022-11-07T14:28:56.709Z,76.80
2022-11-07T14:34:01.730Z,76.99
2022-11-07T14:36:29.412Z,76.86
2022-11-07T14:39:08.866Z,76.56
2022-11-07T14:41:41.791Z,76.28
2022-11-07T14:56:32.574Z,75.83
2022-11-07T14:58:59.182Z,76.18
2022-11-07T15:01:30.312Z,76.01
2022-11-07T15:04:14.439Z,76.31
2022-11-07T15:09:09.267Z,76.31
2022-11-07T15:11:54.791Z,76.29
2022-11-07T15:16:50.960Z,76.79
2022-11-07T15:19:23.120Z,76.46
2022-11-07T15:24:32.282Z,76.56
2022-11-07T15:27:33.295Z,76.39
2022-11-07T15:30:01.972Z,76.35
2022-11-07T15:35:12.189Z,76.57
2022-11-07T15:40:27.465Z,76.79
2022-11-07T15:42:54.350Z,76.58
2022-11-07T15:45:21.212Z,76.78
2022-11-07T15:47:48.435Z,76.71
2022-11-07T15:50:17.776Z,76.80
2022-11-07T15:52:45.344Z,76.59
2022-11-07T15:55:14.222Z,76.56
2022-11-07T15:57:41.420Z,76.72
2022-11-07T16:00:14.447Z,76.53
2022-11-07T16:02:40.955Z,76.75
2022-11-07T16:05:07.872Z,76.52
2022-11-07T16:10:03.223Z,76.40
2022-11-07T16:17:25.489Z,76.37
2022-11-07T16:19:51.828Z,76.78
2022-11-07T16:22:18.180Z,76.53
2022-11-07T16:24:44.518Z,76.61
2022-11-07T16:27:17.200Z,77.03
2022-11-07T16:34:44.537Z,77.11
2022-11-07T16:37:11.738Z,77.21
2022-11-07T16:39:38.061Z,76.95
2022-11-07T16:42:04.419Z,77.32
2022-11-07T16:44:30.810Z,76.89
2022-11-07T16:46:57.389Z,77.19
2022-11-07T16:49:33.441Z,77.19
2022-11-07T16:54:26.197Z,77.16
2022-11-07T17:01:47.057Z,77.32
2022-11-07T17:04:13.585Z,77.06
2022-11-07T17:06:46.183Z,77.08
2022-11-07T17:09:16.591Z,76.86
2022-11-07T17:14:12.914Z,76.93
2022-11-07T17:16:43.968Z,76.98
2022-11-07T17:21:43.594Z,76.83
2022-11-07T17:24:10.328Z,76.83
2022-11-07T17:33:59.198Z,77.24
2022-11-07T17:39:10.949Z,77.12
2022-11-07T17:41:42.055Z,77.16
2022-11-07T17:44:09.339Z,77.03
2022-11-07T17:46:39.152Z,77.19
2022-11-07T17:49:07.624Z,77.23
2022-11-07T17:51:35.851Z,77.35
2022-11-07T17:54:02.643Z,77.57
2022-11-07T17:56:30.506Z,77.64
2022-11-07T17:58:59.068Z,77.73
2022-11-07T18:03:54.847Z,77.88
2022-11-07T18:06:23.342Z,77.92
2022-11-07T18:08:52.543Z,78.01
2022-11-07T18:13:46.167Z,77.75
2022-11-07T18:18:43.414Z,77.92
2022-11-07T18:23:36.148Z,78.03
2022-11-07T18:26:07.638Z,78.36
2022-11-07T18:28:36.238Z,78.09
2022-11-07T18:35:58.386Z,78.01
2022-11-07T18:40:59.636Z,77.60
2022-11-07T18:43:26.705Z,77.68
2022-11-07T18:45:53.933Z,77.58
2022-11-07T18:48:20.634Z,77.89
2022-11-07T18:53:16.520Z,78.07
2022-11-07T18:55:43.016Z,78.15
2022-11-07T19:00:35.774Z,78.01
2022-11-07T19:03:02.285Z,77.98
2022-11-07T19:07:55.207Z,77.76
2022-11-07T19:12:47.943Z,78.06
2022-11-07T19:15:14.318Z,78.18
2022-11-07T19:20:07.615Z,78.44
2022-11-07T19:22:33.991Z,78.12
2022-11-07T19:25:00.293Z,78.33
2022-11-07T19:27:26.618Z,78.08
2022-11-07T19:29:53.043Z,78.01
2022-11-07T19:32:19.436Z,77.97
2022-11-07T19:37:12.308Z,78.58
2022-11-07T19:39:38.805Z,78.38
2022-11-07T19:46:58.197Z,78.64
2022-11-07T19:49:24.563Z,78.63
2022-11-07T19:56:44.932Z,78.40
2022-11-07T20:01:39.229Z,78.40
2022-11-07T20:09:02.169Z,78.33
2022-11-07T20:14:00.053Z,78.39
2022-11-07T20:18:52.943Z,78.28
2022-11-07T20:21:23.450Z,78.61
2022-11-07T20:31:18.633Z,78.69
2022-11-07T20:33:45.122Z,78.21
2022-11-07T20:38:40.375Z,78.28
2022-11-07T20:48:32.579Z,78.61
2022-11-07T20:55:51.478Z,78.36
2022-11-07T20:58:17.993Z,78.98
2022-11-07T21:03:14.734Z,78.79
2022-11-07T21:05:41.453Z,78.83
2022-11-07T21:08:07.848Z,78.92
2022-11-07T21:17:53.064Z,78.99
2022-11-07T21:25:16.660Z,78.91
2022-11-07T21:27:42.984Z,78.93
2022-11-07T21:32:35.815Z,78.78
2022-11-07T21:39:54.664Z,78.94
2022-11-07T21:44:47.333Z,78.94
2022-11-07T21:47:13.689Z,79.24
2022-11-07T21:49:40.006Z,79.54
2022-11-07T21:52:06.308Z,79.54
2022-11-07T21:54:32.642Z,79.56
2022-11-07T22:09:17.601Z,80.94
2022-11-07T22:11:44.732Z,80.96
2022-11-07T22:14:16.790Z,81.42
2022-11-07T22:16:43.878Z,81.25
2022-11-07T22:19:12.716Z,81.42
2022-11-07T22:24:06.594Z,81.64
2022-11-07T22:26:32.911Z,81.79
2022-11-07T22:28:59.227Z,82.19
2022-11-07T22:31:29.848Z,82.04
2022-11-07T22:33:58.103Z,82.27
2022-11-07T22:38:51.448Z,81.92
2022-11-07T22:43:46.963Z,82.26
2022-11-07T22:46:19.293Z,82.29
2022-11-07T22:48:46.616Z,82.40
2022-11-07T22:51:15.648Z,82.40
2022-11-07T22:53:41.981Z,82.96
2022-11-07T22:58:36.403Z,82.63
2022-11-07T23:01:03.356Z,82.67
2022-11-07T23:03:31.303Z,82.63
2022-11-07T23:06:02.775Z,82.60
2022-11-07T23:08:29.107Z,82.67
2022-11-07T23:11:44.085Z,82.73
2022-11-07T23:16:33.252Z,82.85
2022-11-07T23:19:01.758Z,82.96
2022-11-07T23:23:56.808Z,83.24
2022-11-07T23:26:24.446Z,83.32
2022-11-07T23:28:51.078Z,83.38
2022-11-07T23:31:18.627Z,83.15
2022-11-07T23:33:45.044Z,83.53
2022-11-07T23:38:39.532Z,83.43
2022-11-07T23:41:08.192Z,83.48
2022-11-07T23:43:34.836Z,83.32
2022-11-07T23:46:20.694Z,83.48
2022-11-07T23:49:07.649Z,83.39
2022-11-07T23:51:37.018Z,83.20
2022-11-07T23:56:48.888Z,83.35
2022-11-07T23:59:33.651Z,83.27
